Elk Mountain, WY

6:31 AM MDT on August 20, 2017 (GMT -0600)
Elk Mountain

Weather History for KEHY - August, 2014

Change the Weather History Date:

Monday, August 18, 2014

  Actual Average (KSAA) Record (KSAA)
Temperature  
Mean Temperature 62 °F -  
Max Temperature 80 °F 80 °F 82 °F (2014)
Min Temperature 44 °F 48 °F 33 °F (2015)
Degree Days  
Heating Degree Days 3    
Growing Degree Days 12 (Base 50)    
Moisture  
Dew Point 28 °F    
Average Humidity 32    
Maximum Humidity 71    
Minimum Humidity 8    
Precipitation  
Precipitation 0.00 in - - ()
Sea Level Pressure  
Sea Level Pressure 30.19 in    
Wind  
Wind Speed 3 mph (NW)    
Max Wind Speed 16 mph    
Max Gust Speed 26 mph    
Visibility 10 miles    
Events      
Averages and records for this station are not official NWS values.
T = Trace of Precipitation, MM = Missing Value Source: NWS Daily Summary

Daily Weather History Graph

Daily Weather History Graph

Search for Another Location

Airport or City:

Trip Planner

Search our weather history database for the weather conditions in past years. The results will help you decide how hot, cold, wet, or windy it might be!

Date:

Astronomy

Aug. 18, 2014 Rise Set
Actual Time 6:17 AM MDT 8:01 PM MDT
Civil Twilight 5:47 AM MDT 8:30 PM MDT
Nautical Twilight 5:11 AM MDT 9:06 PM MDT
Astronomical Twilight 4:33 AM MDT 9:45 PM MDT
Moon 12:25 AM MDT (8/18) 3:08 PM MDT (8/18)
Length of Visible Light 14h 43m
Length of Day
13h 43m
Last Quarter, 38% of the Moon is Illuminated
Aug 18
Last Quarter
Aug 25
New
Sep 2
First Quarter
Sep 8
Full
Sep 15
Last Quarter

Hourly Weather History & Observations

Time (MDT) Temp. Dew Point Humidity Pressure Visibility Wind Dir Wind Speed Gust Speed Precip Events Conditions
12:15 AM 53.6 °F 35.6 °F 51% 30.24 in 10.0 mi Calm Calm - N/A   Overcast
12:35 AM 51.8 °F 35.6 °F 54% 30.23 in 10.0 mi Calm Calm - N/A   Overcast
12:55 AM 50.0 °F 33.8 °F 54% 30.23 in 10.0 mi Calm Calm - N/A   Overcast
1:15 AM 51.8 °F 32.0 °F 47% 30.23 in 10.0 mi Calm Calm - N/A   Overcast
1:35 AM 51.8 °F 33.8 °F 50% 30.23 in 10.0 mi East 4.6 mph - N/A   Overcast
1:55 AM 51.8 °F 32.0 °F 47% 30.23 in 10.0 mi Calm Calm - N/A   Overcast
2:15 AM 51.8 °F 32.0 °F 47% 30.23 in 10.0 mi East 5.8 mph - N/A   Overcast
2:35 AM 51.8 °F 32.0 °F 47% 30.23 in 10.0 mi East 4.6 mph - N/A   Overcast
2:55 AM 51.8 °F 32.0 °F 47% 30.23 in 10.0 mi East 3.5 mph - N/A   Overcast
3:15 AM 50.0 °F 32.0 °F 50% 30.23 in 10.0 mi East 3.5 mph - N/A   Overcast
3:35 AM 50.0 °F 32.0 °F 50% 30.23 in 10.0 mi Calm Calm - N/A   Overcast
3:55 AM 46.4 °F 33.8 °F 62% 30.22 in 10.0 mi Calm Calm - N/A   Overcast
4:15 AM 46.4 °F 33.8 °F 62% 30.22 in 10.0 mi Calm Calm - N/A   Overcast
4:35 AM 50.0 °F 32.0 °F 50% 30.22 in 10.0 mi Calm Calm - N/A   Overcast
4:55 AM 44.6 °F 35.6 °F 71% 30.22 in 10.0 mi Calm Calm - N/A   Overcast
5:15 AM 50.0 °F 32.0 °F 50% 30.21 in 10.0 mi Calm Calm - N/A   Overcast
5:35 AM 50.0 °F 32.0 °F 50% 30.21 in 10.0 mi Calm Calm - N/A   Overcast
5:55 AM 46.4 °F 33.8 °F 62% 30.21 in 10.0 mi Calm Calm - N/A   Overcast
6:15 AM 46.4 °F 32.0 °F 57% 30.21 in 10.0 mi Calm Calm - N/A   Overcast
6:35 AM 46.4 °F 32.0 °F 57% 30.22 in 10.0 mi Calm Calm - N/A   Overcast
6:55 AM 48.2 °F 32.0 °F 54% 30.23 in 10.0 mi Calm Calm - N/A   Overcast
7:15 AM 51.8 °F 32.0 °F 47% 30.23 in 10.0 mi East 3.5 mph - N/A   Overcast
7:35 AM 53.6 °F 33.8 °F 47% 30.23 in 10.0 mi Calm Calm - N/A   Overcast
7:55 AM 57.2 °F 33.8 °F 41% 30.23 in 10.0 mi Calm Calm - N/A   Overcast
8:15 AM 55.4 °F 41.0 °F 58% 30.24 in 10.0 mi Calm Calm - N/A   Overcast
8:35 AM 62.6 °F 30.2 °F 30% 30.23 in 10.0 mi North 3.5 mph - N/A   Overcast
8:55 AM 62.6 °F 30.2 °F 30% 30.23 in 10.0 mi Calm Calm - N/A   Overcast
9:15 AM 64.4 °F 32.0 °F 30% 30.23 in 10.0 mi Calm Calm - N/A   Overcast
9:35 AM 66.2 °F 32.0 °F 28% 30.23 in 10.0 mi Calm Calm - N/A   Overcast
9:55 AM 69.8 °F 32.0 °F 25% 30.23 in 10.0 mi Calm Calm - N/A   Overcast
10:15 AM 71.6 °F 32.0 °F 23% 30.23 in 10.0 mi Calm Calm - N/A   Overcast
10:35 AM 73.4 °F 28.4 °F 19% 30.23 in 10.0 mi Calm Calm - N/A   Overcast
10:55 AM 73.4 °F 26.6 °F 18% 30.23 in 10.0 mi West 4.6 mph - N/A   Overcast
11:15 AM 77.0 °F 23.0 °F 13% 30.23 in 10.0 mi West 6.9 mph - N/A   Overcast
11:35 AM 77.0 °F 23.0 °F 13% 30.23 in 10.0 mi West 5.8 mph - N/A   Overcast
11:55 AM 77.0 °F 23.0 °F 13% 30.22 in 10.0 mi WNW 9.2 mph - N/A   Overcast
12:15 PM 78.8 °F 23.0 °F 13% 30.21 in 10.0 mi West 8.1 mph - N/A   Overcast
12:35 PM 78.8 °F 23.0 °F 13% 30.21 in 10.0 mi West 11.5 mph 16.1 mph N/A   Overcast
12:55 PM 78.8 °F 21.2 °F 12% 30.21 in 10.0 mi West 13.8 mph 19.6 mph N/A   Overcast
1:15 PM 78.8 °F 21.2 °F 12% 30.20 in 10.0 mi West 6.9 mph 19.6 mph N/A   Overcast
1:35 PM 78.8 °F 21.2 °F 12% 30.20 in 10.0 mi WNW 15.0 mph 20.7 mph N/A   Overcast
1:55 PM 80.6 °F 21.2 °F 11% 30.19 in 10.0 mi WNW 13.8 mph 23.0 mph N/A   Overcast
2:15 PM 78.8 °F 17.6 °F 10% 30.19 in 10.0 mi West 15.0 mph 18.4 mph N/A   Overcast
2:35 PM 80.6 °F 17.6 °F 10% 30.18 in 10.0 mi WNW 16.1 mph 24.2 mph N/A   Overcast
2:55 PM 80.6 °F 19.4 °F 10% 30.18 in 10.0 mi WNW 11.5 mph 20.7 mph N/A   Overcast
3:15 PM 78.8 °F 19.4 °F 11% 30.17 in 10.0 mi West 9.2 mph 20.7 mph N/A   Overcast
3:35 PM 80.6 °F 17.6 °F 10% 30.16 in 10.0 mi NNW 13.8 mph 25.3 mph N/A   Overcast
3:55 PM 80.6 °F 14.0 °F 8% 30.16 in 10.0 mi NW 5.8 mph 18.4 mph N/A   Overcast
4:15 PM 78.8 °F 17.6 °F 10% 30.15 in 10.0 mi West 12.7 mph - N/A   Overcast
4:35 PM 78.8 °F 17.6 °F 10% 30.15 in 10.0 mi WNW 9.2 mph 12.7 mph N/A   Overcast
4:55 PM 80.6 °F 17.6 °F 10% 30.15 in 10.0 mi WNW 11.5 mph 23.0 mph N/A   Overcast
5:15 PM 78.8 °F 19.4 °F 11% 30.14 in 10.0 mi WNW 5.8 mph - N/A   Overcast
5:35 PM 78.8 °F 17.6 °F 10% 30.14 in 10.0 mi West 12.7 mph - N/A   Overcast
5:55 PM 77.0 °F 19.4 °F 12% 30.14 in 10.0 mi West 4.6 mph - N/A   Overcast
6:15 PM 75.2 °F 26.6 °F 17% 30.14 in 10.0 mi West 5.8 mph - N/A   Overcast
6:35 PM 73.4 °F 26.6 °F 18% 30.15 in 10.0 mi NW 16.1 mph 26.5 mph N/A   Overcast
6:55 PM 73.4 °F 26.6 °F 18% 30.15 in 10.0 mi NW 8.1 mph - N/A   Overcast
7:15 PM 71.6 °F 26.6 °F 19% 30.15 in 10.0 mi NNW 8.1 mph - N/A   Overcast
7:35 PM 69.8 °F 28.4 °F 21% 30.14 in 10.0 mi North 5.8 mph - N/A   Overcast
7:55 PM 69.8 °F 28.4 °F 21% 30.14 in 10.0 mi North 4.6 mph - N/A   Overcast
8:15 PM 64.4 °F 28.4 °F 26% 30.14 in 10.0 mi NNE 4.6 mph - N/A   Overcast
8:35 PM 64.4 °F 30.2 °F 28% 30.14 in 10.0 mi ESE 5.8 mph - N/A   Overcast
8:55 PM 60.8 °F 33.8 °F 36% 30.14 in 10.0 mi ESE 5.8 mph - N/A   Overcast
9:15 PM 60.8 °F 33.8 °F 36% 30.14 in 10.0 mi SE 4.6 mph - N/A   Overcast
9:35 PM 59.0 °F 33.8 °F 39% 30.15 in 10.0 mi ESE 3.5 mph - N/A   Overcast
10:15 PM 55.4 °F 33.8 °F 44% 30.14 in 10.0 mi East 6.9 mph - N/A   Overcast
10:35 PM 57.2 °F 33.8 °F 41% 30.14 in 10.0 mi ESE 5.8 mph - N/A   Overcast
10:55 PM 59.0 °F 32.0 °F 36% 30.14 in 10.0 mi East 4.6 mph - N/A   Overcast
11:15 PM 57.2 °F 32.0 °F 38% 30.13 in 10.0 mi ESE 5.8 mph - N/A   Overcast
11:35 PM 53.6 °F 33.8 °F 47% 30.13 in 10.0 mi Calm Calm - N/A   Overcast
11:55 PM 53.6 °F 33.8 °F 47% 30.13 in 10.0 mi Calm Calm - N/A   Overcast